createdAt,value
2023-01-22T00:01:19.669Z,65.60
2023-01-22T00:03:49.401Z,64.80
2023-01-22T00:06:17.277Z,59.47
2023-01-22T00:08:44.609Z,58.87
2023-01-22T00:11:12.363Z,62.07
2023-01-22T00:13:40.169Z,58.10
2023-01-22T00:16:10.171Z,62.03
2023-01-22T00:18:37.460Z,61.92
2023-01-22T00:21:05.139Z,64.07
2023-01-22T00:23:33.311Z,59.63
2023-01-22T00:26:06.354Z,62.83
2023-01-22T00:28:34.189Z,58.93
2023-01-22T00:31:04.513Z,60.90
2023-01-22T00:33:32.906Z,60.83
2023-01-22T00:36:09.294Z,64.10
2023-01-22T00:38:36.832Z,62.13
2023-01-22T00:41:07.476Z,64.03
2023-01-22T00:43:38.784Z,59.20
2023-01-22T00:46:08.986Z,58.97
2023-01-22T00:48:37.117Z,58.90
2023-01-22T00:51:05.523Z,55.63
2023-01-22T00:53:33.100Z,59.67
2023-01-22T00:56:03.471Z,59.07
2023-01-22T00:58:31.084Z,59.57
2023-01-22T01:00:58.871Z,51.20
2023-01-22T01:03:32.500Z,55.33
2023-01-22T01:06:18.394Z,55.90
2023-01-22T01:08:48.467Z,56.50
2023-01-22T01:11:25.297Z,54.87
2023-01-22T01:13:53.465Z,52.57
2023-01-22T01:16:29.826Z,52.30
2023-01-22T01:19:07.952Z,46.70
2023-01-22T01:21:36.517Z,45.73
2023-01-22T01:24:04.792Z,45.97
2023-01-22T01:26:33.587Z,43.85
2023-01-22T01:29:04.940Z,45.03
2023-01-22T01:31:32.267Z,43.20
2023-01-22T01:34:00.114Z,43.83
2023-01-22T01:36:47.269Z,40.20
2023-01-22T01:39:15.437Z,42.40
2023-01-22T01:41:42.660Z,42.63
2023-01-22T01:44:19.827Z,42.23
2023-01-22T01:46:56.338Z,43.33
2023-01-22T01:49:51.382Z,40.43
2023-01-22T01:52:20.697Z,42.83
2023-01-22T01:54:56.806Z,40.93
2023-01-22T01:57:30.555Z,40.40
2023-01-22T02:00:00.301Z,38.50
2023-01-22T02:02:27.606Z,39.87
2023-01-22T02:04:56.577Z,39.13
2023-01-22T02:07:23.940Z,38.97
2023-01-22T02:09:51.572Z,39.27
2023-01-22T02:12:18.930Z,36.00
2023-01-22T02:14:48.841Z,37.90
2023-01-22T02:17:21.403Z,36.10
2023-01-22T02:19:49.174Z,35.03
2023-01-22T02:22:26.179Z,35.90
2023-01-22T02:24:53.719Z,36.20
2023-01-22T02:27:21.502Z,35.23
2023-01-22T02:29:49.524Z,32.83
2023-01-22T02:32:16.987Z,34.57
2023-01-22T02:34:44.871Z,32.90
2023-01-22T02:37:12.602Z,32.07
2023-01-22T02:39:40.348Z,33.83
2023-01-22T02:42:09.019Z,29.97
2023-01-22T02:44:36.747Z,30.33
2023-01-22T02:47:04.377Z,29.03
2023-01-22T02:49:32.154Z,31.47
2023-01-22T02:51:59.446Z,30.77
2023-01-22T02:54:27.130Z,30.97
2023-01-22T02:56:54.463Z,29.83
2023-01-22T02:59:22.166Z,29.40
2023-01-22T03:01:49.601Z,32.23
2023-01-22T03:04:17.256Z,29.07
2023-01-22T03:06:46.695Z,29.20
2023-01-22T03:09:17.613Z,28.57
2023-01-22T03:11:47.184Z,28.10
2023-01-22T03:14:34.050Z,27.50
2023-01-22T03:17:20.490Z,27.67
2023-01-22T03:20:06.893Z,28.40
2023-01-22T03:22:34.301Z,27.90
2023-01-22T03:25:02.740Z,28.03
2023-01-22T03:27:31.947Z,27.77
2023-01-22T03:29:59.525Z,26.57
2023-01-22T03:32:26.968Z,25.90
2023-01-22T03:34:54.517Z,26.43
2023-01-22T03:37:21.971Z,24.57
2023-01-22T03:39:49.538Z,24.50
2023-01-22T03:42:16.802Z,21.90
2023-01-22T03:44:44.684Z,23.70
2023-01-22T03:47:11.925Z,22.00
2023-01-22T03:49:39.431Z,21.37
2023-01-22T03:52:06.728Z,19.50
2023-01-22T03:54:34.631Z,20.00
2023-01-22T03:57:01.890Z,19.90
2023-01-22T03:59:29.447Z,18.03
2023-01-22T04:01:56.763Z,17.90
2023-01-22T04:04:24.485Z,18.13
2023-01-22T04:06:51.824Z,17.33
2023-01-22T04:09:19.471Z,17.07
2023-01-22T04:11:46.865Z,16.97
2023-01-22T04:14:14.469Z,16.30
2023-01-22T04:16:41.840Z,15.83
2023-01-22T04:19:10.463Z,15.77
2023-01-22T04:21:37.934Z,17.27
2023-01-22T04:24:05.958Z,15.87
2023-01-22T04:26:33.238Z,15.30
2023-01-22T04:29:00.851Z,15.60
2023-01-22T04:31:28.273Z,15.43
2023-01-22T04:33:55.992Z,14.70
2023-01-22T04:36:23.475Z,15.40
2023-01-22T04:38:51.051Z,14.20
2023-01-22T04:41:18.367Z,19.50
2023-01-22T04:43:46.039Z,16.70
2023-01-22T04:46:13.385Z,15.17
2023-01-22T04:48:40.966Z,13.73
2023-01-22T04:51:08.389Z,13.80
2023-01-22T04:53:35.944Z,13.93
2023-01-22T04:56:03.482Z,12.77
2023-01-22T04:58:31.112Z,13.30
2023-01-22T05:00:58.901Z,12.73
2023-01-22T05:03:26.666Z,12.30
2023-01-22T05:05:53.927Z,13.40
2023-01-22T05:08:21.485Z,12.70
2023-01-22T05:10:48.791Z,12.17
2023-01-22T05:13:16.406Z,13.07
2023-01-22T05:15:43.807Z,12.30
2023-01-22T05:18:11.380Z,12.50
2023-01-22T05:20:39.089Z,11.90
2023-01-22T05:23:06.690Z,12.17
2023-01-22T05:25:34.012Z,14.23
2023-01-22T05:28:01.910Z,13.87
2023-01-22T05:30:29.251Z,13.33
2023-01-22T05:32:57.778Z,14.13
2023-01-22T05:35:25.283Z,14.10
2023-01-22T05:37:52.916Z,13.73
2023-01-22T05:40:20.613Z,15.87
2023-01-22T05:42:48.436Z,16.53
2023-01-22T05:45:15.784Z,17.10
2023-01-22T05:47:43.339Z,16.37
2023-01-22T05:50:11.161Z,14.70
2023-01-22T05:52:38.735Z,15.07
2023-01-22T05:55:06.702Z,15.37
2023-01-22T05:57:35.692Z,14.63
2023-01-22T06:00:05.210Z,14.90
2023-01-22T06:02:32.911Z,15.93
2023-01-22T06:05:00.297Z,18.33
2023-01-22T06:07:30.952Z,16.60
2023-01-22T06:09:58.251Z,15.17
2023-01-22T06:12:25.941Z,15.97
2023-01-22T06:14:56.101Z,15.30
2023-01-22T06:17:24.311Z,13.07
2023-01-22T06:19:51.624Z,13.23
2023-01-22T06:22:19.340Z,13.17
2023-01-22T06:24:46.669Z,14.33
2023-01-22T06:27:14.271Z,14.83
2023-01-22T06:29:41.511Z,14.77
2023-01-22T06:32:09.201Z,14.50
2023-01-22T06:34:37.655Z,15.13
2023-01-22T06:37:05.780Z,15.23
2023-01-22T06:39:33.107Z,15.80
2023-01-22T06:42:00.722Z,16.00
2023-01-22T06:44:27.979Z,14.40
2023-01-22T06:46:55.594Z,13.77
2023-01-22T06:49:22.841Z,14.87
2023-01-22T06:51:50.434Z,14.47
2023-01-22T06:54:17.702Z,15.17
2023-01-22T06:56:45.313Z,14.53
2023-01-22T06:59:12.536Z,15.67
2023-01-22T07:01:40.255Z,16.47
2023-01-22T07:04:07.579Z,15.03
2023-01-22T07:06:35.186Z,14.73
2023-01-22T07:09:02.524Z,15.90
2023-01-22T07:11:30.021Z,16.30
2023-01-22T07:13:57.335Z,15.97
2023-01-22T07:16:24.996Z,15.60
2023-01-22T07:18:52.271Z,14.57
2023-01-22T07:21:19.805Z,15.13
2023-01-22T07:23:47.094Z,15.70
2023-01-22T07:26:16.034Z,16.40
2023-01-22T07:28:44.980Z,17.00
2023-01-22T07:31:14.014Z,17.40
2023-01-22T07:33:42.255Z,17.25
2023-01-22T07:36:10.015Z,16.40
2023-01-22T07:38:37.253Z,16.73
2023-01-22T07:41:17.005Z,18.10
2023-01-22T07:43:49.482Z,19.17
2023-01-22T07:46:17.181Z,21.53
2023-01-22T07:48:46.003Z,22.53
2023-01-22T07:51:13.705Z,21.70
2023-01-22T07:53:42.816Z,22.13
2023-01-22T07:56:10.641Z,22.08
2023-01-22T07:58:39.465Z,22.17
2023-01-22T08:01:08.467Z,20.95
2023-01-22T08:03:37.872Z,21.33
2023-01-22T08:06:17.493Z,20.70
2023-01-22T08:08:44.740Z,21.53
2023-01-22T08:11:13.645Z,18.80
2023-01-22T08:13:41.358Z,18.73
2023-01-22T08:16:09.569Z,20.83
2023-01-22T08:18:38.422Z,19.63
2023-01-22T08:21:06.509Z,18.57
2023-01-22T08:23:33.801Z,20.00
2023-01-22T08:26:04.161Z,21.57
2023-01-22T08:28:32.046Z,22.27
2023-01-22T08:31:02.761Z,20.83
2023-01-22T08:33:33.957Z,24.07
2023-01-22T08:36:01.570Z,24.10
2023-01-22T08:38:28.941Z,23.50
2023-01-22T08:40:56.559Z,20.37
2023-01-22T08:43:24.033Z,20.00
2023-01-22T08:45:51.874Z,19.77
2023-01-22T08:48:19.225Z,19.27
2023-01-22T08:50:46.980Z,19.60
2023-01-22T08:53:14.438Z,20.10
2023-01-22T08:55:42.106Z,20.90
2023-01-22T08:58:10.135Z,20.90
2023-01-22T09:00:37.828Z,21.77
2023-01-22T09:03:05.113Z,21.97
2023-01-22T09:05:32.732Z,22.57
2023-01-22T09:08:00.119Z,21.80
2023-01-22T09:10:27.775Z,19.30
2023-01-22T09:12:55.180Z,21.80
2023-01-22T09:15:22.845Z,22.60
2023-01-22T09:17:50.183Z,20.90
2023-01-22T09:20:18.279Z,21.07
2023-01-22T09:22:47.204Z,21.30
2023-01-22T09:25:16.147Z,20.73
2023-01-22T09:27:43.912Z,23.43
2023-01-22T09:30:14.495Z,22.17
2023-01-22T09:32:42.034Z,21.67
2023-01-22T09:35:10.251Z,21.77
2023-01-22T09:37:37.550Z,21.70
2023-01-22T09:40:05.859Z,21.30
2023-01-22T09:42:40.514Z,21.23
2023-01-22T09:45:13.999Z,21.67
2023-01-22T09:47:49.369Z,21.77
2023-01-22T09:50:23.510Z,22.67
2023-01-22T09:52:55.270Z,21.57
2023-01-22T09:55:28.519Z,20.80
2023-01-22T09:58:00.492Z,21.73
2023-01-22T10:00:41.447Z,21.57
2023-01-22T10:03:36.829Z,23.63
2023-01-22T10:06:15.087Z,22.60
2023-01-22T10:09:16.326Z,23.70
2023-01-22T10:11:52.451Z,26.77
2023-01-22T10:14:23.752Z,24.48
2023-01-22T10:16:52.279Z,25.27
2023-01-22T10:19:41.787Z,22.65
2023-01-22T10:22:22.485Z,18.27
2023-01-22T10:24:51.052Z,15.98
2023-01-22T10:27:40.026Z,16.52
2023-01-22T10:30:24.307Z,17.88
2023-01-22T10:33:06.914Z,15.83
2023-01-22T10:35:47.328Z,14.87
2023-01-22T10:38:35.165Z,14.27
2023-01-22T10:41:04.554Z,16.35
2023-01-22T10:43:38.580Z,14.97
2023-01-22T10:46:17.853Z,14.25
2023-01-22T10:48:45.486Z,15.27
2023-01-22T10:51:22.448Z,15.23
2023-01-22T10:53:56.985Z,17.95
2023-01-22T10:56:38.672Z,16.52
2023-01-22T10:59:29.727Z,16.30
2023-01-22T11:02:12.041Z,17.50
2023-01-22T11:04:40.015Z,19.47
2023-01-22T11:07:20.954Z,18.77
2023-01-22T11:10:17.467Z,19.10
2023-01-22T11:12:52.352Z,19.08
2023-01-22T11:15:29.655Z,20.13
2023-01-22T11:18:02.706Z,22.20
2023-01-22T11:20:55.279Z,22.23
2023-01-22T11:23:31.338Z,23.23
2023-01-22T11:26:27.201Z,22.15
2023-01-22T11:29:30.590Z,20.70
2023-01-22T11:32:32.752Z,23.50
2023-01-22T11:35:27.884Z,22.38
2023-01-22T11:38:04.976Z,22.15
2023-01-22T11:40:36.401Z,22.05
2023-01-22T11:43:33.185Z,21.88
2023-01-22T11:46:17.576Z,18.20
2023-01-22T11:49:08.369Z,25.50
2023-01-22T11:52:02.710Z,22.75
2023-01-22T11:54:53.510Z,20.92
2023-01-22T11:57:47.066Z,21.07
2023-01-22T12:00:35.247Z,24.08
2023-01-22T12:03:37.840Z,21.67
2023-01-22T12:06:13.000Z,20.42
2023-01-22T12:08:58.360Z,23.93
2023-01-22T12:11:59.939Z,22.58
2023-01-22T12:14:48.107Z,26.30
2023-01-22T12:17:54.891Z,24.83
2023-01-22T12:21:07.826Z,26.80
2023-01-22T12:24:04.085Z,28.30
2023-01-22T12:26:38.112Z,25.23
2023-01-22T12:29:18.611Z,26.48
2023-01-22T12:32:09.328Z,25.50
2023-01-22T12:35:05.590Z,21.60
2023-01-22T12:37:49.872Z,26.95
2023-01-22T12:40:35.557Z,26.85
2023-01-22T12:43:08.198Z,25.95
2023-01-22T12:45:45.503Z,23.13
2023-01-22T12:48:42.978Z,24.20
2023-01-22T12:51:46.262Z,22.50
2023-01-22T12:54:35.453Z,26.63
2023-01-22T12:57:14.875Z,23.98
2023-01-22T12:59:50.913Z,24.73
2023-01-22T13:02:38.875Z,24.50
2023-01-22T13:05:20.260Z,24.40
2023-01-22T13:07:50.203Z,25.58
2023-01-22T13:10:23.238Z,29.48
2023-01-22T13:13:17.331Z,36.45
2023-01-22T13:15:53.652Z,35.45
2023-01-22T13:18:28.289Z,35.20
2023-01-22T13:21:08.653Z,33.17
2023-01-22T13:23:43.719Z,32.42
2023-01-22T13:26:24.905Z,31.50
2023-01-22T13:29:04.352Z,31.95
2023-01-22T13:31:33.016Z,30.17
2023-01-22T13:34:09.076Z,31.13
2023-01-22T13:36:46.406Z,33.57
2023-01-22T13:39:33.034Z,33.38
2023-01-22T13:42:05.166Z,28.63
2023-01-22T13:44:43.488Z,26.80
2023-01-22T13:47:40.203Z,26.33
2023-01-22T13:50:24.537Z,24.30
2023-01-22T13:52:52.186Z,24.60
2023-01-22T13:55:25.016Z,25.53
2023-01-22T13:57:56.877Z,30.57
2023-01-22T14:00:36.930Z,29.93
2023-01-22T14:03:23.116Z,26.90
2023-01-22T14:05:50.803Z,23.80
2023-01-22T14:08:18.901Z,24.05
2023-01-22T14:10:58.439Z,22.23
2023-01-22T14:13:26.124Z,21.15
2023-01-22T14:16:00.286Z,21.42
2023-01-22T14:18:31.066Z,22.50
2023-01-22T14:20:58.985Z,23.23
2023-01-22T14:23:26.363Z,23.70
2023-01-22T14:25:55.748Z,23.20
2023-01-22T14:28:25.208Z,26.73
2023-01-22T14:30:53.154Z,26.83
2023-01-22T14:33:26.243Z,24.73
2023-01-22T14:35:54.713Z,32.53
2023-01-22T14:38:22.793Z,32.53
2023-01-22T14:40:50.674Z,31.55
2023-01-22T14:43:18.749Z,32.33
2023-01-22T14:45:47.194Z,35.53
2023-01-22T14:48:18.351Z,34.05
2023-01-22T14:50:46.132Z,34.43
2023-01-22T14:53:15.594Z,31.85
2023-01-22T14:55:43.848Z,32.60
2023-01-22T14:58:11.751Z,30.13
2023-01-22T15:00:39.999Z,30.10
2023-01-22T15:03:07.422Z,30.45
2023-01-22T15:05:35.830Z,28.88
2023-01-22T15:08:03.477Z,30.50
2023-01-22T15:10:31.695Z,26.35
2023-01-22T15:12:59.403Z,30.05
2023-01-22T15:15:28.506Z,29.70
2023-01-22T15:17:57.777Z,32.37
2023-01-22T15:20:26.486Z,29.97
2023-01-22T15:22:53.752Z,28.52
2023-01-22T15:25:21.368Z,31.88
2023-01-22T15:27:48.810Z,31.13
2023-01-22T15:30:16.949Z,35.28
2023-01-22T15:32:44.346Z,32.90
2023-01-22T15:35:12.013Z,37.60
2023-01-22T15:37:39.379Z,32.65
2023-01-22T15:40:09.823Z,33.42
2023-01-22T15:42:37.493Z,35.22
2023-01-22T15:45:06.957Z,35.47
2023-01-22T15:47:34.475Z,31.85
2023-01-22T15:50:02.041Z,31.25
2023-01-22T15:52:29.611Z,28.43
2023-01-22T15:54:57.933Z,27.17
2023-01-22T15:57:25.249Z,28.38
2023-01-22T15:59:52.946Z,44.78
2023-01-22T16:02:20.331Z,37.55
2023-01-22T16:04:48.047Z,49.10
2023-01-22T16:07:15.411Z,39.40
2023-01-22T16:09:43.303Z,36.88
2023-01-22T16:12:10.682Z,35.03
2023-01-22T16:14:38.288Z,34.80
2023-01-22T16:17:06.060Z,34.27
2023-01-22T16:19:34.692Z,33.00
2023-01-22T16:22:02.170Z,28.70
2023-01-22T16:24:29.874Z,30.57
2023-01-22T16:26:57.176Z,29.20
2023-01-22T16:29:24.773Z,29.57
2023-01-22T16:31:52.303Z,28.37
2023-01-22T16:34:21.686Z,29.47
2023-01-22T16:36:49.312Z,30.08
2023-01-22T16:39:22.552Z,29.10
2023-01-22T16:41:51.792Z,29.05
2023-01-22T16:44:27.402Z,27.10
2023-01-22T16:46:59.930Z,30.13
2023-01-22T16:49:33.705Z,30.25
2023-01-22T16:52:20.642Z,31.27
2023-01-22T16:54:50.065Z,29.38
2023-01-22T16:57:19.385Z,29.35
2023-01-22T16:59:46.990Z,28.40
2023-01-22T17:02:16.857Z,27.03
2023-01-22T17:04:45.302Z,28.33
2023-01-22T17:07:27.423Z,30.35
2023-01-22T17:09:59.775Z,28.30
2023-01-22T17:12:27.484Z,28.38
2023-01-22T17:14:55.082Z,25.60
2023-01-22T17:17:22.404Z,29.58
2023-01-22T17:19:49.959Z,26.33
2023-01-22T17:22:17.227Z,35.42
2023-01-22T17:24:44.817Z,40.53
2023-01-22T17:27:18.272Z,36.50
2023-01-22T17:29:45.911Z,31.47
2023-01-22T17:32:13.240Z,28.00
2023-01-22T17:34:42.024Z,26.47
2023-01-22T17:37:11.230Z,23.20
2023-01-22T17:39:39.758Z,25.33
2023-01-22T17:42:07.124Z,22.75
2023-01-22T17:44:35.013Z,24.27
2023-01-22T17:47:03.503Z,25.63
2023-01-22T17:49:33.401Z,24.00
2023-01-22T17:52:00.886Z,22.37
2023-01-22T17:54:28.732Z,24.33
2023-01-22T17:56:56.061Z,22.77
2023-01-22T17:59:25.521Z,23.75
2023-01-22T18:01:53.058Z,20.83
2023-01-22T18:04:20.684Z,23.85
2023-01-22T18:06:50.191Z,22.33
2023-01-22T18:09:18.326Z,23.97
2023-01-22T18:11:45.712Z,25.43
2023-01-22T18:14:21.724Z,25.90
2023-01-22T18:16:50.623Z,27.63
2023-01-22T18:19:18.910Z,26.03
2023-01-22T18:21:46.316Z,24.20
2023-01-22T18:24:14.346Z,22.83
2023-01-22T18:26:42.419Z,23.23
2023-01-22T18:29:11.589Z,23.70
2023-01-22T18:31:40.055Z,22.90
2023-01-22T18:34:15.367Z,23.87
2023-01-22T18:36:44.161Z,23.23
2023-01-22T18:39:16.554Z,24.27
2023-01-22T18:41:45.249Z,26.73
2023-01-22T18:44:16.328Z,24.48
2023-01-22T18:46:47.563Z,24.45
2023-01-22T18:49:18.925Z,26.52
2023-01-22T18:51:47.215Z,21.75
2023-01-22T18:54:16.109Z,23.10
2023-01-22T18:56:43.578Z,22.13
2023-01-22T18:59:13.100Z,22.73
2023-01-22T19:01:41.181Z,23.13
2023-01-22T19:04:12.147Z,21.17
2023-01-22T19:06:39.688Z,21.88
2023-01-22T19:09:14.263Z,19.63
2023-01-22T19:11:47.152Z,22.45
2023-01-22T19:14:18.832Z,24.43
2023-01-22T19:16:48.962Z,20.20
2023-01-22T19:19:17.458Z,22.90
2023-01-22T19:21:49.239Z,20.40
2023-01-22T19:24:22.408Z,23.13
2023-01-22T19:26:51.477Z,22.85
2023-01-22T19:29:19.414Z,26.87
2023-01-22T19:31:53.948Z,26.52
2023-01-22T19:34:23.917Z,26.70
2023-01-22T19:36:55.959Z,26.60
2023-01-22T19:39:28.360Z,24.17
2023-01-22T19:41:56.907Z,22.45
2023-01-22T19:44:24.719Z,21.55
2023-01-22T19:46:53.023Z,28.77
2023-01-22T19:49:21.244Z,26.98
2023-01-22T19:51:48.863Z,29.20
2023-01-22T19:54:17.724Z,28.13
2023-01-22T19:56:46.009Z,28.43
2023-01-22T19:59:19.194Z,28.75
2023-01-22T20:01:48.784Z,29.23
2023-01-22T20:04:30.874Z,26.75
2023-01-22T20:07:02.079Z,27.33
2023-01-22T20:09:31.050Z,28.70
2023-01-22T20:11:59.795Z,29.48
2023-01-22T20:14:33.633Z,25.57
2023-01-22T20:17:03.320Z,27.98
2023-01-22T20:19:31.868Z,28.05
2023-01-22T20:22:10.964Z,26.25
2023-01-22T20:24:41.215Z,25.42
2023-01-22T20:27:09.453Z,25.30
2023-01-22T20:29:39.948Z,25.23
2023-01-22T20:32:07.964Z,26.00
2023-01-22T20:34:35.788Z,23.48
2023-01-22T20:37:03.350Z,23.38
2023-01-22T20:39:30.917Z,24.20
2023-01-22T20:41:58.231Z,26.58
2023-01-22T20:44:26.147Z,24.45
2023-01-22T20:46:53.562Z,26.88
2023-01-22T20:49:21.193Z,26.63
2023-01-22T20:51:48.663Z,25.10
2023-01-22T20:54:18.447Z,24.75
2023-01-22T20:56:46.598Z,25.45
2023-01-22T20:59:18.541Z,24.67
2023-01-22T21:01:46.644Z,23.83
2023-01-22T21:04:18.386Z,24.13
2023-01-22T21:06:45.736Z,26.60
2023-01-22T21:09:13.665Z,23.70
2023-01-22T21:11:42.294Z,26.48
2023-01-22T21:14:20.630Z,24.40
2023-01-22T21:16:49.174Z,24.35
2023-01-22T21:19:23.108Z,27.27
2023-01-22T21:21:51.249Z,32.08
2023-01-22T21:24:19.818Z,40.75
2023-01-22T21:26:47.146Z,37.33
2023-01-22T21:29:21.770Z,37.03
2023-01-22T21:31:52.846Z,29.98
2023-01-22T21:34:23.856Z,28.60
2023-01-22T21:36:54.309Z,24.70
2023-01-22T21:39:29.731Z,24.00
2023-01-22T21:42:16.444Z,24.13
2023-01-22T21:45:03.618Z,22.38
2023-01-22T21:47:31.240Z,23.55
2023-01-22T21:49:58.972Z,24.65
2023-01-22T21:52:26.582Z,21.67
2023-01-22T21:54:54.171Z,21.92
2023-01-22T21:57:21.452Z,23.38
2023-01-22T21:59:49.119Z,21.17
2023-01-22T22:02:18.909Z,20.00
2023-01-22T22:04:46.645Z,19.10
2023-01-22T22:07:14.403Z,16.43
2023-01-22T22:09:44.306Z,19.55
2023-01-22T22:12:11.970Z,19.27
2023-01-22T22:14:39.610Z,18.08
2023-01-22T22:17:07.801Z,17.63
2023-01-22T22:19:35.326Z,18.17
2023-01-22T22:22:02.706Z,18.17
2023-01-22T22:24:30.301Z,19.43
2023-01-22T22:26:57.585Z,18.30
2023-01-22T22:29:25.244Z,17.42
2023-01-22T22:31:52.624Z,17.38
2023-01-22T22:34:20.295Z,15.38
2023-01-22T22:36:47.579Z,14.32
2023-01-22T22:39:15.159Z,21.90
2023-01-22T22:41:42.440Z,22.42
2023-01-22T22:44:10.912Z,27.73
2023-01-22T22:46:40.013Z,27.27
2023-01-22T22:49:11.866Z,23.97
2023-01-22T22:51:42.523Z,18.60
2023-01-22T22:54:19.718Z,17.70
2023-01-22T22:56:49.032Z,17.33
2023-01-22T22:59:19.857Z,18.85
2023-01-22T23:01:51.558Z,18.23
2023-01-22T23:04:19.292Z,22.33
2023-01-22T23:06:47.564Z,32.73
2023-01-22T23:09:19.867Z,22.55
2023-01-22T23:11:51.751Z,24.30
2023-01-22T23:14:19.565Z,23.83
2023-01-22T23:16:47.803Z,23.42
2023-01-22T23:19:25.608Z,22.83
2023-01-22T23:21:58.583Z,21.23
2023-01-22T23:24:27.684Z,19.75
2023-01-22T23:26:55.558Z,24.30
2023-01-22T23:29:26.809Z,28.50
2023-01-22T23:31:54.400Z,25.97
2023-01-22T23:34:27.863Z,22.33
2023-01-22T23:36:55.473Z,23.83
2023-01-22T23:39:23.103Z,24.35
2023-01-22T23:41:50.385Z,28.52
2023-01-22T23:44:18.241Z,27.20
2023-01-22T23:46:45.893Z,24.73
2023-01-22T23:49:13.600Z,26.10
2023-01-22T23:51:43.641Z,27.23
2023-01-22T23:54:11.421Z,24.33
2023-01-22T23:56:38.700Z,22.05
2023-01-22T23:59:06.437Z,18.02
